Terminal Aerodrome Forecast
Issued by NWS

Home | Current Version | Previous Version | Text Only | Print | Product List | Glossary On
Versions: 1 2 3 4 5 6 7 8 9 10 11 12 13 14 15 16
000
FTUS45 KRIW 211124
TAFLND
TAF
KLND 211124Z 2112/2212 24020G30KT P6SM VCSH SCT050 BKN090
      WS020/24050KT
     FM211600 25024G34KT P6SM VCSH SCT050 BKN100 WS020/24050KT
     FM220000 25015G25KT P6SM VCSH BKN050
     FM220700 25011KT P6SM SCT050 BKN100=

USA.gov is the U.S. government's official web portal to all federal, state and local government web resources and services.